TGL502 LFBZ-LICC
Flight info
| Callsign | TGL502 |
|---|---|
| Flight time | 2h 6m |
| Altitude | 36000 |
| Route | SOVOS G17 ORTEZ DCT TBO DCT PERDU N862 POSSY M601 BCN N725 ORKUM M603 ELSAG DCT ALG/N0436F370 DCT QUENN DCT RONAB DCT BEKIV/N0344F190 M871 LIBRO |
| Aircraft | A320/M-SDE3FGHIRWY/LB1 |
Departure
| Time | 2026-04-25 09:37 |
|---|---|
| Airport | Biarritz Pays Basque airport (LFBZ) |
Arrival
| Time | 2026-04-25 11:43 |
|---|---|
| Airport | Catania-Fontanarossa Airport (LICC) |
| Time | Latitude | Longitude | Altitude | Speed | Heading |
|---|---|---|---|---|---|
| 2026-04-25 09:29 | 43.47106 | -1.52968 | 246 ft | 0 kts | 359° |
| 2026-04-25 09:30 | 43.47091 | -1.52968 | 247 ft | 4 kts | 359° |
| 2026-04-25 09:30 | 43.47065 | -1.52967 | 247 ft | 3 kts | 355° |
| 2026-04-25 09:30 | 43.47051 | -1.52965 | 247 ft | 2 kts | 317° |
| 2026-04-25 09:31 | 43.47045 | -1.52952 | 247 ft | 2 kts | 268° |
| 2026-04-25 09:31 | 43.47045 | -1.52944 | 246 ft | 0 kts | 273° |
| 2026-04-25 09:32 | 43.47050 | -1.52974 | 246 ft | 8 kts | 284° |
| 2026-04-25 09:32 | 43.47055 | -1.53080 | 247 ft | 13 kts | 270° |
| 2026-04-25 09:32 | 43.47010 | -1.53164 | 248 ft | 13 kts | 168° |
| 2026-04-25 09:33 | 43.46991 | -1.53045 | 247 ft | 15 kts | 88° |
| 2026-04-25 09:33 | 43.46993 | -1.52890 | 245 ft | 17 kts | 89° |
| 2026-04-25 09:33 | 43.46995 | -1.52710 | 244 ft | 20 kts | 89° |
| 2026-04-25 09:33 | 43.46997 | -1.52506 | 242 ft | 23 kts | 89° |
| 2026-04-25 09:34 | 43.46998 | -1.52294 | 240 ft | 19 kts | 88° |
| 2026-04-25 09:34 | 43.46953 | -1.52171 | 239 ft | 10 kts | 153° |
| 2026-04-25 09:34 | 43.46869 | -1.52135 | 238 ft | 19 kts | 139° |
| 2026-04-25 09:34 | 43.46847 | -1.51897 | 237 ft | 29 kts | 91° |
| 2026-04-25 09:35 | 43.46849 | -1.51626 | 234 ft | 29 kts | 90° |
| 2026-04-25 09:35 | 43.46853 | -1.51350 | 232 ft | 29 kts | 88° |
| 2026-04-25 09:35 | 43.46858 | -1.51084 | 229 ft | 18 kts | 84° |
| 2026-04-25 09:35 | 43.46872 | -1.50969 | 229 ft | 10 kts | 137° |
| 2026-04-25 09:36 | 43.46846 | -1.50971 | 229 ft | 1 kts | 208° |
| 2026-04-25 09:36 | 43.46839 | -1.50979 | 229 ft | 3 kts | 224° |
| 2026-04-25 09:36 | 43.46848 | -1.51064 | 231 ft | 16 kts | 281° |
| 2026-04-25 09:36 | 43.46848 | -1.51463 | 233 ft | 76 kts | 269° |
| 2026-04-25 09:37 | 43.46837 | -1.52485 | 242 ft | 134 kts | 269° |
| 2026-04-25 09:37 | 43.46808 | -1.53884 | 651 ft | 147 kts | 266° |
| 2026-04-25 09:37 | 43.46787 | -1.55306 | 1325 ft | 149 kts | 269° |
| 2026-04-25 09:37 | 43.46524 | -1.56668 | 1907 ft | 155 kts | 236° |
| 2026-04-25 09:38 | 43.45577 | -1.57491 | 2355 ft | 173 kts | 192° |
| 2026-04-25 09:38 | 43.44392 | -1.57201 | 2924 ft | 184 kts | 150° |
| 2026-04-25 09:38 | 43.43566 | -1.55871 | 3554 ft | 188 kts | 113° |
| 2026-04-25 09:38 | 43.43182 | -1.54147 | 4125 ft | 194 kts | 101° |
| 2026-04-25 09:39 | 43.42923 | -1.52206 | 4452 ft | 217 kts | 99° |
| 2026-04-25 09:39 | 43.42472 | -1.50110 | 4771 ft | 242 kts | 120° |
| 2026-04-25 09:39 | 43.41518 | -1.48063 | 5188 ft | 266 kts | 126° |
| 2026-04-25 09:40 | 43.39419 | -1.44745 | 6532 ft | 278 kts | 133° |
| 2026-04-25 09:40 | 43.38113 | -1.42811 | 7456 ft | 281 kts | 133° |
| 2026-04-25 09:40 | 43.36786 | -1.40774 | 8473 ft | 285 kts | 132° |
| 2026-04-25 09:40 | 43.35472 | -1.38712 | 9496 ft | 289 kts | 132° |
| 2026-04-25 09:41 | 43.34144 | -1.36612 | 10483 ft | 294 kts | 132° |
| 2026-04-25 09:41 | 43.32767 | -1.34435 | 10907 ft | 318 kts | 132° |
| 2026-04-25 09:41 | 43.31257 | -1.32057 | 11319 ft | 343 kts | 132° |
| 2026-04-25 09:41 | 43.29628 | -1.29500 | 11681 ft | 368 kts | 132° |
| 2026-04-25 09:42 | 43.27892 | -1.26775 | 11986 ft | 392 kts | 132° |
| 2026-04-25 09:42 | 43.26055 | -1.23892 | 12538 ft | 407 kts | 132° |
| 2026-04-25 09:42 | 43.24175 | -1.20932 | 13389 ft | 415 kts | 132° |
| 2026-04-25 09:42 | 43.22265 | -1.17928 | 14264 ft | 421 kts | 132° |
| 2026-04-25 09:43 | 43.20325 | -1.14879 | 15088 ft | 427 kts | 132° |
| 2026-04-25 09:43 | 43.18360 | -1.11802 | 15928 ft | 431 kts | 132° |
| 2026-04-25 09:43 | 43.16368 | -1.08692 | 16731 ft | 436 kts | 132° |
| 2026-04-25 09:43 | 43.14355 | -1.05560 | 17524 ft | 441 kts | 132° |
| 2026-04-25 09:44 | 43.12316 | -1.02391 | 18316 ft | 446 kts | 132° |
| 2026-04-25 09:44 | 43.10259 | -0.99193 | 19045 ft | 450 kts | 132° |
| 2026-04-25 09:44 | 43.08183 | -0.95964 | 19760 ft | 454 kts | 132° |
| 2026-04-25 09:44 | 43.06086 | -0.92706 | 20498 ft | 458 kts | 132° |
| 2026-04-25 09:45 | 43.03973 | -0.89429 | 21228 ft | 462 kts | 132° |
| 2026-04-25 09:45 | 43.01840 | -0.86124 | 21871 ft | 466 kts | 133° |
| 2026-04-25 09:45 | 42.99699 | -0.82807 | 22823 ft | 464 kts | 133° |
| 2026-04-25 09:45 | 42.97572 | -0.79516 | 23864 ft | 461 kts | 133° |
| 2026-04-25 09:46 | 42.95453 | -0.76241 | 24687 ft | 458 kts | 133° |
| 2026-04-25 09:46 | 42.93347 | -0.72990 | 25412 ft | 457 kts | 133° |
| 2026-04-25 09:46 | 42.91248 | -0.69750 | 25983 ft | 455 kts | 133° |
| 2026-04-25 09:46 | 42.89149 | -0.66517 | 26551 ft | 454 kts | 133° |
| 2026-04-25 09:47 | 42.87056 | -0.63303 | 27109 ft | 453 kts | 133° |
| 2026-04-25 09:47 | 42.84969 | -0.60103 | 27641 ft | 452 kts | 133° |
| 2026-04-25 09:47 | 42.82883 | -0.56907 | 28126 ft | 451 kts | 133° |
| 2026-04-25 09:47 | 42.80800 | -0.53713 | 28597 ft | 450 kts | 133° |
| 2026-04-25 09:48 | 42.78755 | -0.50576 | 29055 ft | 449 kts | 133° |
| 2026-04-25 09:48 | 42.76680 | -0.47407 | 29522 ft | 448 kts | 133° |
| 2026-04-25 09:48 | 42.74593 | -0.44225 | 29723 ft | 453 kts | 133° |
| 2026-04-25 09:48 | 42.72481 | -0.41000 | 29858 ft | 459 kts | 133° |
| 2026-04-25 09:49 | 42.70346 | -0.37749 | 30006 ft | 463 kts | 133° |
| 2026-04-25 09:49 | 42.68197 | -0.34476 | 30151 ft | 466 kts | 133° |
| 2026-04-25 09:49 | 42.66032 | -0.31174 | 30282 ft | 469 kts | 133° |
| 2026-04-25 09:49 | 42.63860 | -0.27869 | 30458 ft | 470 kts | 133° |
| 2026-04-25 09:50 | 42.61677 | -0.24560 | 30672 ft | 470 kts | 133° |
| 2026-04-25 09:50 | 42.59495 | -0.21257 | 30943 ft | 470 kts | 133° |
| 2026-04-25 09:50 | 42.57317 | -0.17961 | 31219 ft | 469 kts | 133° |
| 2026-04-25 09:50 | 42.55139 | -0.14667 | 31491 ft | 468 kts | 133° |
| 2026-04-25 09:51 | 42.52970 | -0.11390 | 31757 ft | 467 kts | 133° |
| 2026-04-25 09:51 | 42.50800 | -0.08111 | 32030 ft | 467 kts | 133° |
| 2026-04-25 09:51 | 42.48631 | -0.04837 | 32316 ft | 466 kts | 133° |
| 2026-04-25 09:51 | 42.46470 | -0.01577 | 32588 ft | 465 kts | 133° |
| 2026-04-25 09:52 | 42.44306 | 0.01680 | 32866 ft | 464 kts | 133° |
| 2026-04-25 09:52 | 42.42142 | 0.04922 | 33137 ft | 464 kts | 133° |
| 2026-04-25 09:52 | 42.39979 | 0.08157 | 33416 ft | 463 kts | 133° |
| 2026-04-25 09:52 | 42.37823 | 0.11381 | 33694 ft | 463 kts | 133° |
| 2026-04-25 09:53 | 42.35666 | 0.14612 | 33970 ft | 462 kts | 133° |
| 2026-04-25 09:53 | 42.33514 | 0.17836 | 34233 ft | 461 kts | 133° |
| 2026-04-25 09:53 | 42.31367 | 0.21050 | 34476 ft | 461 kts | 133° |
| 2026-04-25 09:53 | 42.29218 | 0.24260 | 34734 ft | 460 kts | 133° |
| 2026-04-25 09:54 | 42.27072 | 0.27457 | 34990 ft | 459 kts | 133° |
| 2026-04-25 09:54 | 42.24929 | 0.30642 | 35268 ft | 458 kts | 133° |
| 2026-04-25 09:54 | 42.22791 | 0.33815 | 35543 ft | 457 kts | 133° |
| 2026-04-25 09:54 | 42.20659 | 0.36982 | 35808 ft | 456 kts | 133° |
| 2026-04-25 09:55 | 42.18531 | 0.40141 | 36062 ft | 455 kts | 133° |
| 2026-04-25 09:55 | 42.16405 | 0.43296 | 36315 ft | 454 kts | 133° |
| 2026-04-25 09:55 | 42.14286 | 0.46437 | 36567 ft | 453 kts | 133° |
| 2026-04-25 09:55 | 42.12172 | 0.49572 | 36806 ft | 452 kts | 133° |
| 2026-04-25 09:56 | 42.10057 | 0.52698 | 37042 ft | 451 kts | 133° |
| 2026-04-25 09:56 | 42.07945 | 0.55816 | 37137 ft | 451 kts | 133° |
| 2026-04-25 09:56 | 42.03719 | 0.62029 | 37145 ft | 450 kts | 133° |
| 2026-04-25 09:57 | 41.99491 | 0.68233 | 37149 ft | 450 kts | 133° |
| 2026-04-25 09:57 | 41.95273 | 0.74442 | 37150 ft | 450 kts | 133° |
| 2026-04-25 09:58 | 41.91049 | 0.80641 | 37148 ft | 450 kts | 133° |
| 2026-04-25 09:58 | 41.86840 | 0.86774 | 37153 ft | 450 kts | 134° |
| 2026-04-25 09:59 | 41.82579 | 0.92932 | 37157 ft | 450 kts | 134° |
| 2026-04-25 09:59 | 41.78313 | 0.99077 | 37160 ft | 450 kts | 134° |
| 2026-04-25 10:00 | 41.74045 | 1.05214 | 37163 ft | 450 kts | 134° |
| 2026-04-25 10:00 | 41.69926 | 1.11526 | 37166 ft | 450 kts | 125° |
| 2026-04-25 10:01 | 41.66943 | 1.18763 | 37147 ft | 441 kts | 118° |
| 2026-04-25 10:01 | 41.64120 | 1.26023 | 37144 ft | 439 kts | 118° |
| 2026-04-25 10:02 | 41.61300 | 1.33255 | 37142 ft | 439 kts | 118° |
| 2026-04-25 10:02 | 41.58475 | 1.40498 | 37143 ft | 439 kts | 118° |
| 2026-04-25 10:03 | 41.55648 | 1.47729 | 37144 ft | 439 kts | 118° |
| 2026-04-25 10:03 | 41.52817 | 1.54945 | 37155 ft | 440 kts | 118° |
| 2026-04-25 10:04 | 41.49979 | 1.62175 | 37170 ft | 440 kts | 118° |
| 2026-04-25 10:04 | 41.47138 | 1.69406 | 37167 ft | 440 kts | 118° |
| 2026-04-25 10:05 | 41.44293 | 1.76617 | 37170 ft | 439 kts | 118° |
| 2026-04-25 10:05 | 41.41460 | 1.83772 | 37168 ft | 439 kts | 118° |
| 2026-04-25 10:06 | 41.38588 | 1.91022 | 37173 ft | 439 kts | 118° |
| 2026-04-25 10:06 | 41.35726 | 1.98209 | 37174 ft | 439 kts | 118° |
| 2026-04-25 10:07 | 41.32876 | 2.05343 | 37175 ft | 440 kts | 118° |
| 2026-04-25 10:07 | 41.30424 | 2.12780 | 37175 ft | 441 kts | 105° |
| 2026-04-25 10:08 | 41.29107 | 2.20742 | 37177 ft | 441 kts | 103° |
| 2026-04-25 10:08 | 41.27782 | 2.28721 | 37174 ft | 442 kts | 103° |
| 2026-04-25 10:09 | 41.26447 | 2.36693 | 37170 ft | 442 kts | 103° |
| 2026-04-25 10:09 | 41.25115 | 2.44661 | 37173 ft | 442 kts | 103° |
| 2026-04-25 10:10 | 41.23784 | 2.52634 | 37167 ft | 442 kts | 103° |
| 2026-04-25 10:10 | 41.22445 | 2.60605 | 37168 ft | 442 kts | 103° |
| 2026-04-25 10:11 | 41.21093 | 2.68576 | 37165 ft | 442 kts | 103° |
| 2026-04-25 10:11 | 41.19739 | 2.76544 | 37169 ft | 442 kts | 103° |
| 2026-04-25 10:12 | 41.18391 | 2.84519 | 37163 ft | 443 kts | 103° |
| 2026-04-25 10:13 | 41.16350 | 2.96471 | 37165 ft | 443 kts | 103° |
| 2026-04-25 10:13 | 41.14969 | 3.04443 | 37167 ft | 443 kts | 103° |
| 2026-04-25 10:14 | 41.13582 | 3.12427 | 37172 ft | 444 kts | 103° |
| 2026-04-25 10:14 | 41.12194 | 3.20402 | 37165 ft | 444 kts | 103° |
| 2026-04-25 10:15 | 41.10808 | 3.28391 | 37167 ft | 445 kts | 103° |
| 2026-04-25 10:15 | 41.09412 | 3.36384 | 37164 ft | 445 kts | 103° |
| 2026-04-25 10:16 | 41.08002 | 3.44380 | 37167 ft | 446 kts | 103° |
| 2026-04-25 10:16 | 41.06584 | 3.52381 | 37175 ft | 446 kts | 103° |
| 2026-04-25 10:17 | 41.05157 | 3.60393 | 37173 ft | 447 kts | 103° |
| 2026-04-25 10:17 | 41.03730 | 3.68407 | 37180 ft | 447 kts | 103° |
| 2026-04-25 10:18 | 41.02297 | 3.76426 | 37178 ft | 447 kts | 103° |
| 2026-04-25 10:18 | 41.00868 | 3.84384 | 37177 ft | 448 kts | 103° |
| 2026-04-25 10:19 | 40.99417 | 3.92400 | 37181 ft | 448 kts | 103° |
| 2026-04-25 10:19 | 40.97959 | 4.00407 | 37180 ft | 448 kts | 103° |
| 2026-04-25 10:20 | 40.96498 | 4.08418 | 37181 ft | 448 kts | 103° |
| 2026-04-25 10:20 | 40.95029 | 4.16416 | 37183 ft | 447 kts | 103° |
| 2026-04-25 10:21 | 40.93554 | 4.24400 | 37184 ft | 447 kts | 103° |
| 2026-04-25 10:21 | 40.92089 | 4.32388 | 37182 ft | 447 kts | 103° |
| 2026-04-25 10:22 | 40.90612 | 4.40379 | 37180 ft | 448 kts | 103° |
| 2026-04-25 10:22 | 40.89112 | 4.48366 | 37180 ft | 448 kts | 103° |
| 2026-04-25 10:23 | 40.87619 | 4.56366 | 37183 ft | 448 kts | 102° |
| 2026-04-25 10:23 | 40.86128 | 4.64362 | 37180 ft | 448 kts | 102° |
| 2026-04-25 10:24 | 40.85162 | 4.72470 | 37173 ft | 448 kts | 95° |
| 2026-04-25 10:24 | 40.84471 | 4.80013 | 37177 ft | 448 kts | 96° |
| 2026-04-25 10:25 | 40.83712 | 4.88185 | 37188 ft | 448 kts | 96° |
| 2026-04-25 10:25 | 40.82947 | 4.96351 | 37189 ft | 448 kts | 96° |
| 2026-04-25 10:26 | 40.82167 | 5.04523 | 37193 ft | 449 kts | 96° |
| 2026-04-25 10:26 | 40.81547 | 5.11113 | 37192 ft | 449 kts | 95° |
| 2026-04-25 10:27 | 40.80770 | 5.19291 | 37192 ft | 449 kts | 96° |
| 2026-04-25 10:27 | 40.79976 | 5.27467 | 37193 ft | 449 kts | 96° |
| 2026-04-25 10:28 | 40.79181 | 5.35641 | 37193 ft | 449 kts | 96° |
| 2026-04-25 10:28 | 40.78387 | 5.43812 | 37191 ft | 449 kts | 96° |
| 2026-04-25 10:29 | 40.77582 | 5.51984 | 37193 ft | 449 kts | 96° |
| 2026-04-25 10:29 | 40.76769 | 5.60163 | 37193 ft | 450 kts | 96° |
| 2026-04-25 10:30 | 40.75947 | 5.68338 | 37192 ft | 449 kts | 96° |
| 2026-04-25 10:30 | 40.75123 | 5.76504 | 37188 ft | 449 kts | 96° |
| 2026-04-25 10:31 | 40.74285 | 5.84678 | 37189 ft | 450 kts | 96° |
| 2026-04-25 10:31 | 40.73446 | 5.92851 | 37183 ft | 450 kts | 96° |
| 2026-04-25 10:32 | 40.72606 | 6.01026 | 37185 ft | 450 kts | 96° |
| 2026-04-25 10:32 | 40.71766 | 6.09204 | 37188 ft | 450 kts | 96° |
| 2026-04-25 10:33 | 40.70916 | 6.17384 | 37188 ft | 450 kts | 96° |
| 2026-04-25 10:33 | 40.70055 | 6.25558 | 37190 ft | 450 kts | 96° |
| 2026-04-25 10:34 | 40.69184 | 6.33723 | 37189 ft | 450 kts | 96° |
| 2026-04-25 10:34 | 40.68310 | 6.41889 | 37192 ft | 450 kts | 96° |
| 2026-04-25 10:35 | 40.67429 | 6.50057 | 37193 ft | 450 kts | 96° |
| 2026-04-25 10:35 | 40.66549 | 6.58218 | 37197 ft | 450 kts | 96° |
| 2026-04-25 10:36 | 40.65660 | 6.66375 | 37196 ft | 450 kts | 96° |
| 2026-04-25 10:36 | 40.64761 | 6.74527 | 37184 ft | 450 kts | 96° |
| 2026-04-25 10:37 | 40.63868 | 6.82620 | 37192 ft | 449 kts | 96° |
| 2026-04-25 10:37 | 40.62967 | 6.90754 | 37196 ft | 449 kts | 96° |
| 2026-04-25 10:38 | 40.62055 | 6.98898 | 37193 ft | 449 kts | 97° |
| 2026-04-25 10:38 | 40.61138 | 7.07033 | 37190 ft | 449 kts | 97° |
| 2026-04-25 10:39 | 40.60219 | 7.15157 | 37195 ft | 449 kts | 97° |
| 2026-04-25 10:39 | 40.59290 | 7.23285 | 37184 ft | 449 kts | 97° |
| 2026-04-25 10:40 | 40.58349 | 7.31405 | 37196 ft | 449 kts | 97° |
| 2026-04-25 10:40 | 40.57408 | 7.39515 | 37193 ft | 449 kts | 97° |
| 2026-04-25 10:41 | 40.56584 | 7.47636 | 37184 ft | 447 kts | 90° |
| 2026-04-25 10:41 | 40.57051 | 7.55739 | 37187 ft | 444 kts | 81° |
| 2026-04-25 10:42 | 40.57759 | 7.63814 | 37187 ft | 445 kts | 82° |
| 2026-04-25 10:42 | 40.58449 | 7.71906 | 37185 ft | 445 kts | 82° |
| 2026-04-25 10:43 | 40.59132 | 7.79994 | 37183 ft | 445 kts | 82° |
| 2026-04-25 10:43 | 40.59812 | 7.88092 | 37182 ft | 445 kts | 82° |
| 2026-04-25 10:44 | 40.60485 | 7.96185 | 37173 ft | 445 kts | 82° |
| 2026-04-25 10:44 | 40.61160 | 8.04284 | 37167 ft | 445 kts | 82° |
| 2026-04-25 10:45 | 40.61833 | 8.12392 | 37161 ft | 445 kts | 82° |
| 2026-04-25 10:45 | 40.62492 | 8.20497 | 37159 ft | 446 kts | 84° |
| 2026-04-25 10:46 | 40.62014 | 8.28638 | 37157 ft | 450 kts | 102° |
| 2026-04-25 10:46 | 40.60472 | 8.36629 | 37157 ft | 451 kts | 102° |
| 2026-04-25 10:47 | 40.58938 | 8.44631 | 37157 ft | 451 kts | 102° |
| 2026-04-25 10:47 | 40.57405 | 8.52636 | 37163 ft | 451 kts | 102° |
| 2026-04-25 10:48 | 40.55860 | 8.60641 | 37161 ft | 452 kts | 102° |
| 2026-04-25 10:48 | 40.54310 | 8.68639 | 37162 ft | 452 kts | 102° |
| 2026-04-25 10:49 | 40.52759 | 8.76592 | 37161 ft | 452 kts | 102° |
| 2026-04-25 10:49 | 40.51187 | 8.84580 | 37157 ft | 452 kts | 102° |
| 2026-04-25 10:50 | 40.49616 | 8.92585 | 37160 ft | 452 kts | 102° |
| 2026-04-25 10:50 | 40.48046 | 9.00585 | 37160 ft | 452 kts | 102° |
| 2026-04-25 10:51 | 40.46468 | 9.08580 | 37158 ft | 452 kts | 103° |
| 2026-04-25 10:51 | 40.44882 | 9.16565 | 37157 ft | 452 kts | 103° |
| 2026-04-25 10:52 | 40.43286 | 9.24546 | 37155 ft | 452 kts | 103° |
| 2026-04-25 10:52 | 40.41681 | 9.32537 | 37153 ft | 452 kts | 103° |
| 2026-04-25 10:53 | 40.40077 | 9.40516 | 37165 ft | 452 kts | 103° |
| 2026-04-25 10:53 | 40.38472 | 9.48493 | 37168 ft | 453 kts | 103° |
| 2026-04-25 10:54 | 40.36855 | 9.56472 | 37167 ft | 453 kts | 103° |
| 2026-04-25 10:54 | 40.35228 | 9.64443 | 37172 ft | 453 kts | 103° |
| 2026-04-25 10:55 | 40.33602 | 9.72411 | 37174 ft | 452 kts | 103° |
| 2026-04-25 10:55 | 40.31967 | 9.80378 | 37184 ft | 453 kts | 103° |
| 2026-04-25 10:56 | 40.30328 | 9.88341 | 37183 ft | 453 kts | 103° |
| 2026-04-25 10:56 | 40.28684 | 9.96298 | 37183 ft | 453 kts | 103° |
| 2026-04-25 10:57 | 40.27035 | 10.04255 | 37187 ft | 453 kts | 103° |
| 2026-04-25 10:57 | 40.25377 | 10.12208 | 37189 ft | 453 kts | 103° |
| 2026-04-25 10:58 | 40.23717 | 10.20151 | 37187 ft | 453 kts | 103° |
| 2026-04-25 10:58 | 40.22053 | 10.28096 | 37189 ft | 452 kts | 103° |
| 2026-04-25 10:59 | 40.20384 | 10.36034 | 37188 ft | 452 kts | 103° |
| 2026-04-25 10:59 | 40.18715 | 10.43961 | 37189 ft | 452 kts | 103° |
| 2026-04-25 11:00 | 40.17040 | 10.51882 | 37184 ft | 452 kts | 103° |
| 2026-04-25 11:00 | 40.15351 | 10.59791 | 37185 ft | 452 kts | 103° |
| 2026-04-25 11:01 | 40.13669 | 10.67638 | 37185 ft | 452 kts | 103° |
| 2026-04-25 11:01 | 40.11983 | 10.75545 | 37184 ft | 452 kts | 103° |
| 2026-04-25 11:02 | 40.10291 | 10.83444 | 37184 ft | 452 kts | 103° |
| 2026-04-25 11:02 | 40.08587 | 10.91339 | 37183 ft | 452 kts | 103° |
| 2026-04-25 11:03 | 40.06871 | 10.99230 | 37180 ft | 452 kts | 104° |
| 2026-04-25 11:03 | 40.05154 | 11.07121 | 37179 ft | 452 kts | 104° |
| 2026-04-25 11:04 | 40.03435 | 11.15009 | 37181 ft | 452 kts | 104° |
| 2026-04-25 11:04 | 40.01712 | 11.22887 | 37181 ft | 452 kts | 104° |
| 2026-04-25 11:05 | 39.99978 | 11.30767 | 37178 ft | 452 kts | 104° |
| 2026-04-25 11:05 | 39.98243 | 11.38640 | 37174 ft | 452 kts | 104° |
| 2026-04-25 11:06 | 39.96502 | 11.46511 | 37178 ft | 452 kts | 104° |
| 2026-04-25 11:06 | 39.94756 | 11.54377 | 37177 ft | 452 kts | 104° |
| 2026-04-25 11:07 | 39.92997 | 11.62254 | 37177 ft | 452 kts | 104° |
| 2026-04-25 11:07 | 39.91243 | 11.70121 | 37174 ft | 452 kts | 104° |
| 2026-04-25 11:08 | 39.89481 | 11.77990 | 37178 ft | 452 kts | 104° |
| 2026-04-25 11:08 | 39.87318 | 11.85677 | 37176 ft | 455 kts | 117° |
| 2026-04-25 11:09 | 39.83418 | 11.92157 | 37173 ft | 459 kts | 137° |
| 2026-04-25 11:09 | 39.78354 | 11.97044 | 37169 ft | 460 kts | 143° |
| 2026-04-25 11:10 | 39.73134 | 12.01847 | 37165 ft | 460 kts | 143° |
| 2026-04-25 11:10 | 39.68789 | 12.05844 | 37167 ft | 460 kts | 143° |
| 2026-04-25 11:11 | 39.63525 | 12.10680 | 37167 ft | 461 kts | 143° |
| 2026-04-25 11:11 | 39.58321 | 12.15443 | 37167 ft | 461 kts | 144° |
| 2026-04-25 11:12 | 39.53078 | 12.20232 | 37171 ft | 461 kts | 144° |
| 2026-04-25 11:12 | 39.47830 | 12.25012 | 37170 ft | 461 kts | 144° |
| 2026-04-25 11:13 | 39.42544 | 12.29826 | 37170 ft | 461 kts | 144° |
| 2026-04-25 11:13 | 39.37299 | 12.34597 | 37170 ft | 461 kts | 144° |
| 2026-04-25 11:14 | 39.32071 | 12.39329 | 37172 ft | 461 kts | 144° |
| 2026-04-25 11:14 | 39.26817 | 12.44073 | 37165 ft | 459 kts | 144° |
| 2026-04-25 11:15 | 39.21582 | 12.48808 | 37161 ft | 460 kts | 144° |
| 2026-04-25 11:15 | 39.16339 | 12.53548 | 37156 ft | 460 kts | 144° |
| 2026-04-25 11:16 | 39.08463 | 12.60629 | 37155 ft | 460 kts | 144° |
| 2026-04-25 11:16 | 39.03203 | 12.65327 | 37157 ft | 461 kts | 144° |
| 2026-04-25 11:17 | 38.97932 | 12.70034 | 37161 ft | 461 kts | 144° |
| 2026-04-25 11:17 | 38.92675 | 12.74742 | 37162 ft | 461 kts | 144° |
| 2026-04-25 11:18 | 38.87408 | 12.79451 | 37162 ft | 461 kts | 144° |
| 2026-04-25 11:18 | 38.82144 | 12.84157 | 37165 ft | 461 kts | 144° |
| 2026-04-25 11:19 | 38.76864 | 12.88841 | 37165 ft | 461 kts | 144° |
| 2026-04-25 11:19 | 38.71587 | 12.93518 | 37170 ft | 461 kts | 144° |
| 2026-04-25 11:20 | 38.66309 | 12.98199 | 37168 ft | 462 kts | 144° |
| 2026-04-25 11:20 | 38.61031 | 13.02870 | 37168 ft | 461 kts | 144° |
| 2026-04-25 11:21 | 38.55980 | 13.07328 | 37164 ft | 461 kts | 144° |
| 2026-04-25 11:21 | 38.50695 | 13.11989 | 37164 ft | 461 kts | 144° |
| 2026-04-25 11:22 | 38.46268 | 13.15881 | 37159 ft | 461 kts | 145° |
| 2026-04-25 11:22 | 38.42769 | 13.18953 | 36824 ft | 460 kts | 144° |
| 2026-04-25 11:22 | 38.40135 | 13.21266 | 36563 ft | 460 kts | 145° |
| 2026-04-25 11:23 | 38.37503 | 13.23572 | 36309 ft | 459 kts | 145° |
| 2026-04-25 11:23 | 38.34866 | 13.25880 | 36049 ft | 459 kts | 145° |
| 2026-04-25 11:23 | 38.32232 | 13.28184 | 35800 ft | 459 kts | 145° |
| 2026-04-25 11:23 | 38.29607 | 13.30479 | 35292 ft | 458 kts | 145° |
| 2026-04-25 11:24 | 38.26983 | 13.32772 | 34671 ft | 458 kts | 145° |
| 2026-04-25 11:24 | 38.24357 | 13.35064 | 34028 ft | 457 kts | 145° |
| 2026-04-25 11:24 | 38.21737 | 13.37349 | 33288 ft | 457 kts | 145° |
| 2026-04-25 11:24 | 38.19107 | 13.39639 | 32510 ft | 458 kts | 145° |
| 2026-04-25 11:25 | 38.16473 | 13.41930 | 31734 ft | 459 kts | 144° |
| 2026-04-25 11:25 | 38.13836 | 13.44223 | 30913 ft | 460 kts | 144° |
| 2026-04-25 11:25 | 38.11189 | 13.46526 | 30111 ft | 461 kts | 144° |
| 2026-04-25 11:25 | 38.08536 | 13.48829 | 28963 ft | 465 kts | 144° |
| 2026-04-25 11:26 | 38.05856 | 13.51155 | 27869 ft | 468 kts | 144° |
| 2026-04-25 11:26 | 38.03159 | 13.53492 | 26746 ft | 471 kts | 145° |
| 2026-04-25 11:26 | 38.00438 | 13.55846 | 25605 ft | 474 kts | 145° |
| 2026-04-25 11:26 | 37.97700 | 13.58212 | 24399 ft | 478 kts | 145° |
| 2026-04-25 11:27 | 37.94948 | 13.60592 | 23088 ft | 482 kts | 145° |
| 2026-04-25 11:27 | 37.92172 | 13.62991 | 21806 ft | 482 kts | 145° |
| 2026-04-25 11:27 | 37.89457 | 13.65386 | 21175 ft | 469 kts | 142° |
| 2026-04-25 11:27 | 37.87838 | 13.67163 | 20677 ft | 463 kts | 135° |
| 2026-04-25 11:28 | 37.85162 | 13.71292 | 20095 ft | 442 kts | 125° |
| 2026-04-25 11:28 | 37.83374 | 13.74360 | 19849 ft | 425 kts | 125° |
| 2026-04-25 11:28 | 37.81635 | 13.77316 | 19609 ft | 412 kts | 125° |
| 2026-04-25 11:28 | 37.79947 | 13.80173 | 19369 ft | 401 kts | 125° |
| 2026-04-25 11:29 | 37.78290 | 13.82979 | 19132 ft | 396 kts | 125° |
| 2026-04-25 11:29 | 37.76650 | 13.85769 | 18893 ft | 395 kts | 125° |
| 2026-04-25 11:29 | 37.75014 | 13.88557 | 18660 ft | 394 kts | 125° |
| 2026-04-25 11:29 | 37.73386 | 13.91334 | 18343 ft | 391 kts | 125° |
| 2026-04-25 11:30 | 37.71774 | 13.94083 | 17818 ft | 388 kts | 125° |
| 2026-04-25 11:30 | 37.70174 | 13.96810 | 17260 ft | 385 kts | 125° |
| 2026-04-25 11:30 | 37.68584 | 13.99516 | 16735 ft | 382 kts | 125° |
| 2026-04-25 11:30 | 37.67001 | 14.02199 | 16199 ft | 380 kts | 125° |
| 2026-04-25 11:31 | 37.65425 | 14.04861 | 15682 ft | 377 kts | 125° |
| 2026-04-25 11:31 | 37.63862 | 14.07504 | 15172 ft | 375 kts | 125° |
| 2026-04-25 11:31 | 37.62309 | 14.10133 | 14661 ft | 372 kts | 125° |
| 2026-04-25 11:31 | 37.60990 | 14.12907 | 14010 ft | 370 kts | 113° |
| 2026-04-25 11:32 | 37.59941 | 14.15927 | 12917 ft | 382 kts | 112° |
| 2026-04-25 11:32 | 37.58912 | 14.19021 | 12178 ft | 382 kts | 111° |
| 2026-04-25 11:32 | 37.57905 | 14.22109 | 11520 ft | 379 kts | 111° |
| 2026-04-25 11:32 | 37.56918 | 14.25145 | 11262 ft | 367 kts | 111° |
| 2026-04-25 11:33 | 37.55979 | 14.28026 | 11128 ft | 343 kts | 111° |
| 2026-04-25 11:33 | 37.55099 | 14.30703 | 10995 ft | 318 kts | 111° |
| 2026-04-25 11:33 | 37.54275 | 14.33195 | 10777 ft | 301 kts | 111° |
| 2026-04-25 11:33 | 37.53472 | 14.35607 | 10430 ft | 297 kts | 111° |
| 2026-04-25 11:34 | 37.52678 | 14.37992 | 10157 ft | 294 kts | 112° |
| 2026-04-25 11:34 | 37.51891 | 14.40358 | 9869 ft | 292 kts | 111° |
| 2026-04-25 11:34 | 37.51104 | 14.42715 | 9557 ft | 291 kts | 111° |
| 2026-04-25 11:34 | 37.50323 | 14.45055 | 9247 ft | 290 kts | 112° |
| 2026-04-25 11:35 | 37.49544 | 14.47386 | 8942 ft | 288 kts | 111° |
| 2026-04-25 11:35 | 37.48771 | 14.49701 | 8661 ft | 286 kts | 112° |
| 2026-04-25 11:35 | 37.47994 | 14.52000 | 8371 ft | 285 kts | 112° |
| 2026-04-25 11:35 | 37.47215 | 14.54283 | 8101 ft | 284 kts | 112° |
| 2026-04-25 11:36 | 37.46435 | 14.56557 | 7836 ft | 282 kts | 112° |
| 2026-04-25 11:36 | 37.45659 | 14.58814 | 7554 ft | 281 kts | 112° |
| 2026-04-25 11:36 | 37.44886 | 14.61065 | 7249 ft | 280 kts | 112° |
| 2026-04-25 11:36 | 37.44120 | 14.63308 | 6952 ft | 278 kts | 112° |
| 2026-04-25 11:37 | 37.43427 | 14.65584 | 6458 ft | 283 kts | 101° |
| 2026-04-25 11:37 | 37.43349 | 14.68000 | 6206 ft | 278 kts | 83° |
| 2026-04-25 11:37 | 37.43555 | 14.70389 | 5997 ft | 271 kts | 82° |
| 2026-04-25 11:37 | 37.43766 | 14.72729 | 5480 ft | 269 kts | 82° |
| 2026-04-25 11:38 | 37.43970 | 14.75059 | 4941 ft | 267 kts | 83° |
| 2026-04-25 11:38 | 37.44169 | 14.77348 | 4403 ft | 255 kts | 83° |
| 2026-04-25 11:38 | 37.44354 | 14.79487 | 4083 ft | 238 kts | 83° |
| 2026-04-25 11:38 | 37.44530 | 14.81504 | 3779 ft | 226 kts | 84° |
| 2026-04-25 11:39 | 37.44695 | 14.83421 | 3486 ft | 215 kts | 84° |
| 2026-04-25 11:39 | 37.44852 | 14.85241 | 3220 ft | 204 kts | 84° |
| 2026-04-25 11:39 | 37.44999 | 14.86948 | 3005 ft | 190 kts | 84° |
| 2026-04-25 11:39 | 37.45136 | 14.88558 | 2743 ft | 181 kts | 85° |
| 2026-04-25 11:40 | 37.45270 | 14.90089 | 2511 ft | 173 kts | 84° |
| 2026-04-25 11:40 | 37.45397 | 14.91591 | 2238 ft | 171 kts | 85° |
| 2026-04-25 11:40 | 37.45523 | 14.93042 | 2020 ft | 162 kts | 85° |
| 2026-04-25 11:40 | 37.45646 | 14.94431 | 1738 ft | 156 kts | 85° |
| 2026-04-25 11:41 | 37.45755 | 14.95754 | 1611 ft | 150 kts | 85° |
| 2026-04-25 11:41 | 37.45866 | 14.97045 | 1381 ft | 147 kts | 84° |
| 2026-04-25 11:41 | 37.45973 | 14.98312 | 1190 ft | 145 kts | 86° |
| 2026-04-25 11:41 | 37.46080 | 14.99569 | 1000 ft | 143 kts | 86° |
| 2026-04-25 11:42 | 37.46185 | 15.00807 | 789 ft | 141 kts | 84° |
| 2026-04-25 11:42 | 37.46290 | 15.02031 | 585 ft | 140 kts | 85° |
| 2026-04-25 11:42 | 37.46392 | 15.03235 | 407 ft | 138 kts | 84° |
| 2026-04-25 11:42 | 37.46492 | 15.04425 | 239 ft | 137 kts | 84° |
| 2026-04-25 11:43 | 37.46593 | 15.05611 | 45 ft | 133 kts | 84° |
| 2026-04-25 11:43 | 37.46676 | 15.06605 | 37 ft | 91 kts | 84° |
| 2026-04-25 11:43 | 37.46726 | 15.07201 | 32 ft | 54 kts | 83° |
| 2026-04-25 11:43 | 37.46763 | 15.07552 | 31 ft | 32 kts | 75° |
| 2026-04-25 11:44 | 37.46856 | 15.07773 | 30 ft | 14 kts | 50° |
| 2026-04-25 11:44 | 37.46924 | 15.07795 | 29 ft | 12 kts | 324° |
| 2026-04-25 11:44 | 37.46934 | 15.07693 | 31 ft | 12 kts | 262° |
| 2026-04-25 11:44 | 37.46924 | 15.07584 | 32 ft | 13 kts | 264° |
| 2026-04-25 11:45 | 37.46913 | 15.07456 | 32 ft | 16 kts | 264° |
| 2026-04-25 11:45 | 37.46902 | 15.07307 | 33 ft | 18 kts | 264° |
| 2026-04-25 11:45 | 37.46884 | 15.07147 | 34 ft | 19 kts | 263° |
| 2026-04-25 11:45 | 37.46871 | 15.06962 | 31 ft | 23 kts | 264° |
| 2026-04-25 11:46 | 37.46856 | 15.06767 | 33 ft | 20 kts | 264° |
| 2026-04-25 11:46 | 37.46868 | 15.06687 | 33 ft | 8 kts | 342° |
| 2026-04-25 11:46 | 37.46923 | 15.06681 | 31 ft | 0 kts | 354° |